sensor_id;sensor_type;location;lat;lon;timestamp;temperature;humidity
11140;DHT22;5624;49.388;11.350;2023-01-23T00:02:17;-0.50;97.80
11140;DHT22;5624;49.388;11.350;2023-01-23T00:04:43;-0.50;98.10
11140;DHT22;5624;49.388;11.350;2023-01-23T00:07:08;-0.50;98.30
11140;DHT22;5624;49.388;11.350;2023-01-23T00:09:34;-0.50;98.40
11140;DHT22;5624;49.388;11.350;2023-01-23T00:12:00;-0.50;98.30
11140;DHT22;5624;49.388;11.350;2023-01-23T00:14:26;-0.40;98.40
11140;DHT22;5624;49.388;11.350;2023-01-23T00:16:52;-0.50;98.30
11140;DHT22;5624;49.388;11.350;2023-01-23T00:19:17;-0.50;98.70
11140;DHT22;5624;49.388;11.350;2023-01-23T00:21:43;-0.50;98.00
11140;DHT22;5624;49.388;11.350;2023-01-23T00:24:10;-0.60;98.80
11140;DHT22;5624;49.388;11.350;2023-01-23T00:26:36;-0.60;99.00
11140;DHT22;5624;49.388;11.350;2023-01-23T00:29:03;-0.60;99.10
11140;DHT22;5624;49.388;11.350;2023-01-23T00:31:38;-0.60;99.00
11140;DHT22;5624;49.388;11.350;2023-01-23T00:34:10;-0.60;98.90
11140;DHT22;5624;49.388;11.350;2023-01-23T00:36:39;-0.60;99.20
11140;DHT22;5624;49.388;11.350;2023-01-23T00:39:19;-0.60;99.60
11140;DHT22;5624;49.388;11.350;2023-01-23T00:41:46;-0.70;99.90
11140;DHT22;5624;49.388;11.350;2023-01-23T00:44:12;-0.70;99.90
11140;DHT22;5624;49.388;11.350;2023-01-23T00:46:38;-0.70;99.90
11140;DHT22;5624;49.388;11.350;2023-01-23T00:49:03;-0.70;99.90
11140;DHT22;5624;49.388;11.350;2023-01-23T00:51:29;-0.60;99.90
11140;DHT22;5624;49.388;11.350;2023-01-23T00:53:55;-0.60;99.80
11140;DHT22;5624;49.388;11.350;2023-01-23T00:56:20;-0.60;99.90
11140;DHT22;5624;49.388;11.350;2023-01-23T00:58:46;-0.60;99.90
11140;DHT22;5624;49.388;11.350;2023-01-23T01:01:13;-0.60;99.40
11140;DHT22;5624;49.388;11.350;2023-01-23T01:03:39;-0.60;99.80
11140;DHT22;5624;49.388;11.350;2023-01-23T01:06:05;-0.70;99.90
11140;DHT22;5624;49.388;11.350;2023-01-23T01:08:30;-0.70;99.90
11140;DHT22;5624;49.388;11.350;2023-01-23T01:10:56;-0.70;99.90
11140;DHT22;5624;49.388;11.350;2023-01-23T01:13:22;-0.70;99.90
11140;DHT22;5624;49.388;11.350;2023-01-23T01:15:49;-0.60;99.90
11140;DHT22;5624;49.388;11.350;2023-01-23T01:18:16;-0.70;99.90
11140;DHT22;5624;49.388;11.350;2023-01-23T01:20:43;-0.70;99.90
11140;DHT22;5624;49.388;11.350;2023-01-23T01:23:09;-0.60;99.90
11140;DHT22;5624;49.388;11.350;2023-01-23T01:25:35;-0.60;99.80
11140;DHT22;5624;49.388;11.350;2023-01-23T01:28:01;-0.50;99.40
11140;DHT22;5624;49.388;11.350;2023-01-23T01:30:26;-0.60;99.70
11140;DHT22;5624;49.388;11.350;2023-01-23T01:32:54;-0.50;99.60
11140;DHT22;5624;49.388;11.350;2023-01-23T01:35:20;-0.50;98.80
11140;DHT22;5624;49.388;11.350;2023-01-23T01:37:46;-0.60;99.10
11140;DHT22;5624;49.388;11.350;2023-01-23T01:40:18;-0.60;98.70
11140;DHT22;5624;49.388;11.350;2023-01-23T01:42:52;-0.60;99.40
11140;DHT22;5624;49.388;11.350;2023-01-23T01:48:24;-0.60;99.20
11140;DHT22;5624;49.388;11.350;2023-01-23T01:50:51;-0.60;99.30
11140;DHT22;5624;49.388;11.350;2023-01-23T01:53:18;-0.60;99.50
11140;DHT22;5624;49.388;11.350;2023-01-23T01:55:45;-0.60;99.60
11140;DHT22;5624;49.388;11.350;2023-01-23T01:58:11;-0.60;99.10
11140;DHT22;5624;49.388;11.350;2023-01-23T02:00:38;-0.50;99.40
11140;DHT22;5624;49.388;11.350;2023-01-23T02:03:04;-0.50;99.10
11140;DHT22;5624;49.388;11.350;2023-01-23T02:05:36;-0.50;99.10
11140;DHT22;5624;49.388;11.350;2023-01-23T02:08:22;-0.50;98.90
11140;DHT22;5624;49.388;11.350;2023-01-23T02:10:50;-0.40;97.90
11140;DHT22;5624;49.388;11.350;2023-01-23T02:15:46;-0.50;98.20
11140;DHT22;5624;49.388;11.350;2023-01-23T02:18:11;-0.50;98.00
11140;DHT22;5624;49.388;11.350;2023-01-23T02:20:37;-0.50;97.70
11140;DHT22;5624;49.388;11.350;2023-01-23T02:28:11;-0.40;97.00
11140;DHT22;5624;49.388;11.350;2023-01-23T02:30:37;-0.40;97.00
11140;DHT22;5624;49.388;11.350;2023-01-23T02:33:42;-0.50;96.80
11140;DHT22;5624;49.388;11.350;2023-01-23T02:35:54;-0.50;97.30
11140;DHT22;5624;49.388;11.350;2023-01-23T02:38:24;-0.40;97.10
11140;DHT22;5624;49.388;11.350;2023-01-23T02:40:50;-0.50;97.50
11140;DHT22;5624;49.388;11.350;2023-01-23T02:43:19;-0.50;97.10
11140;DHT22;5624;49.388;11.350;2023-01-23T02:45:47;-0.50;96.50
11140;DHT22;5624;49.388;11.350;2023-01-23T02:48:13;-0.50;95.70
11140;DHT22;5624;49.388;11.350;2023-01-23T02:50:38;-0.50;96.60
11140;DHT22;5624;49.388;11.350;2023-01-23T02:53:05;-0.50;96.90
11140;DHT22;5624;49.388;11.350;2023-01-23T02:55:30;-0.50;96.90
11140;DHT22;5624;49.388;11.350;2023-01-23T02:57:59;-0.50;96.80
11140;DHT22;5624;49.388;11.350;2023-01-23T03:00:45;-0.60;96.70
11140;DHT22;5624;49.388;11.350;2023-01-23T03:03:12;-0.60;97.10
11140;DHT22;5624;49.388;11.350;2023-01-23T03:05:38;-0.60;97.20
11140;DHT22;5624;49.388;11.350;2023-01-23T03:08:04;-0.60;97.30
11140;DHT22;5624;49.388;11.350;2023-01-23T03:10:30;-0.50;96.40
11140;DHT22;5624;49.388;11.350;2023-01-23T03:12:56;-0.50;95.80
11140;DHT22;5624;49.388;11.350;2023-01-23T03:15:26;-0.50;95.30
11140;DHT22;5624;49.388;11.350;2023-01-23T03:17:52;-0.50;95.10
11140;DHT22;5624;49.388;11.350;2023-01-23T03:20:18;-0.50;95.00
11140;DHT22;5624;49.388;11.350;2023-01-23T03:22:44;-0.50;94.70
11140;DHT22;5624;49.388;11.350;2023-01-23T03:25:11;-0.50;94.10
11140;DHT22;5624;49.388;11.350;2023-01-23T03:27:36;-0.60;92.50
11140;DHT22;5624;49.388;11.350;2023-01-23T03:30:03;-0.70;92.20
11140;DHT22;5624;49.388;11.350;2023-01-23T03:32:41;-0.70;92.40
11140;DHT22;5624;49.388;11.350;2023-01-23T03:35:08;-0.70;92.60
11140;DHT22;5624;49.388;11.350;2023-01-23T03:37:35;-0.70;92.70
11140;DHT22;5624;49.388;11.350;2023-01-23T03:40:01;-0.70;93.20
11140;DHT22;5624;49.388;11.350;2023-01-23T03:42:45;-0.70;93.50
11140;DHT22;5624;49.388;11.350;2023-01-23T03:45:11;-0.70;93.20
11140;DHT22;5624;49.388;11.350;2023-01-23T03:47:37;-0.70;93.60
11140;DHT22;5624;49.388;11.350;2023-01-23T03:50:02;-0.70;93.60
11140;DHT22;5624;49.388;11.350;2023-01-23T03:52:28;-0.80;93.40
11140;DHT22;5624;49.388;11.350;2023-01-23T03:54:54;-0.80;93.80
11140;DHT22;5624;49.388;11.350;2023-01-23T03:57:19;-0.90;93.20
11140;DHT22;5624;49.388;11.350;2023-01-23T03:59:45;-1.00;93.60
11140;DHT22;5624;49.388;11.350;2023-01-23T04:02:10;-0.90;93.40
11140;DHT22;5624;49.388;11.350;2023-01-23T04:04:36;-1.00;92.90
11140;DHT22;5624;49.388;11.350;2023-01-23T04:07:02;-1.10;93.50
11140;DHT22;5624;49.388;11.350;2023-01-23T04:09:28;-1.20;93.60
11140;DHT22;5624;49.388;11.350;2023-01-23T04:11:54;-1.20;94.60
11140;DHT22;5624;49.388;11.350;2023-01-23T04:14:20;-1.10;94.40
11140;DHT22;5624;49.388;11.350;2023-01-23T04:16:46;-1.10;94.70
11140;DHT22;5624;49.388;11.350;2023-01-23T04:19:12;-1.10;94.00
11140;DHT22;5624;49.388;11.350;2023-01-23T04:21:38;-1.10;94.20
11140;DHT22;5624;49.388;11.350;2023-01-23T04:24:03;-1.00;93.70
11140;DHT22;5624;49.388;11.350;2023-01-23T04:26:29;-1.00;94.20
11140;DHT22;5624;49.388;11.350;2023-01-23T04:28:54;-1.10;94.60
11140;DHT22;5624;49.388;11.350;2023-01-23T04:31:20;-1.00;94.30
11140;DHT22;5624;49.388;11.350;2023-01-23T04:33:46;-0.90;93.90
11140;DHT22;5624;49.388;11.350;2023-01-23T04:36:11;-1.00;94.20
11140;DHT22;5624;49.388;11.350;2023-01-23T04:38:37;-0.90;93.40
11140;DHT22;5624;49.388;11.350;2023-01-23T04:41:03;-1.00;92.80
11140;DHT22;5624;49.388;11.350;2023-01-23T04:43:29;-1.00;93.20
11140;DHT22;5624;49.388;11.350;2023-01-23T04:45:55;-1.00;92.60
11140;DHT22;5624;49.388;11.350;2023-01-23T04:48:22;-1.00;92.90
11140;DHT22;5624;49.388;11.350;2023-01-23T04:50:48;-1.00;93.10
11140;DHT22;5624;49.388;11.350;2023-01-23T04:53:14;-1.00;93.00
11140;DHT22;5624;49.388;11.350;2023-01-23T04:55:40;-1.00;92.40
11140;DHT22;5624;49.388;11.350;2023-01-23T04:58:06;-1.10;92.00
11140;DHT22;5624;49.388;11.350;2023-01-23T05:00:31;-1.10;92.20
11140;DHT22;5624;49.388;11.350;2023-01-23T05:02:57;-1.10;92.70
11140;DHT22;5624;49.388;11.350;2023-01-23T05:05:23;-1.10;92.50
11140;DHT22;5624;49.388;11.350;2023-01-23T05:07:49;-1.10;92.00
11140;DHT22;5624;49.388;11.350;2023-01-23T05:10:16;-1.10;92.40
11140;DHT22;5624;49.388;11.350;2023-01-23T05:12:41;-1.10;92.70
11140;DHT22;5624;49.388;11.350;2023-01-23T05:15:08;-1.10;93.00
11140;DHT22;5624;49.388;11.350;2023-01-23T05:17:34;-1.00;93.20
11140;DHT22;5624;49.388;11.350;2023-01-23T05:19:59;-1.00;92.60
11140;DHT22;5624;49.388;11.350;2023-01-23T05:22:25;-1.00;93.20
11140;DHT22;5624;49.388;11.350;2023-01-23T05:24:51;-1.10;93.40
11140;DHT22;5624;49.388;11.350;2023-01-23T05:27:16;-1.00;93.00
11140;DHT22;5624;49.388;11.350;2023-01-23T05:29:42;-1.00;92.90
11140;DHT22;5624;49.388;11.350;2023-01-23T05:32:08;-0.90;92.50
11140;DHT22;5624;49.388;11.350;2023-01-23T05:34:33;-1.00;92.70
11140;DHT22;5624;49.388;11.350;2023-01-23T05:36:59;-1.00;92.40
11140;DHT22;5624;49.388;11.350;2023-01-23T05:39:24;-1.00;92.50
11140;DHT22;5624;49.388;11.350;2023-01-23T05:41:50;-0.90;93.00
11140;DHT22;5624;49.388;11.350;2023-01-23T05:44:16;-1.00;93.70
11140;DHT22;5624;49.388;11.350;2023-01-23T05:46:41;-1.00;93.70
11140;DHT22;5624;49.388;11.350;2023-01-23T05:49:07;-1.10;93.50
11140;DHT22;5624;49.388;11.350;2023-01-23T05:51:32;-1.10;93.30
11140;DHT22;5624;49.388;11.350;2023-01-23T05:53:59;-1.10;93.30
11140;DHT22;5624;49.388;11.350;2023-01-23T05:56:25;-1.10;93.90
11140;DHT22;5624;49.388;11.350;2023-01-23T05:58:51;-1.10;94.00
11140;DHT22;5624;49.388;11.350;2023-01-23T06:01:17;-1.10;94.70
11140;DHT22;5624;49.388;11.350;2023-01-23T06:03:44;-1.10;94.60
11140;DHT22;5624;49.388;11.350;2023-01-23T06:06:09;-1.10;94.70
11140;DHT22;5624;49.388;11.350;2023-01-23T06:08:35;-1.00;93.90
11140;DHT22;5624;49.388;11.350;2023-01-23T06:11:00;-1.00;94.10
11140;DHT22;5624;49.388;11.350;2023-01-23T06:13:27;-0.90;93.70
11140;DHT22;5624;49.388;11.350;2023-01-23T06:15:52;-0.90;93.80
11140;DHT22;5624;49.388;11.350;2023-01-23T06:18:18;-0.90;93.80
11140;DHT22;5624;49.388;11.350;2023-01-23T06:20:44;-0.90;93.30
11140;DHT22;5624;49.388;11.350;2023-01-23T06:23:10;-0.90;93.30
11140;DHT22;5624;49.388;11.350;2023-01-23T06:25:37;-0.90;93.40
11140;DHT22;5624;49.388;11.350;2023-01-23T06:28:02;-0.90;93.40
11140;DHT22;5624;49.388;11.350;2023-01-23T06:30:28;-0.80;93.40
11140;DHT22;5624;49.388;11.350;2023-01-23T06:32:54;-0.90;93.30
11140;DHT22;5624;49.388;11.350;2023-01-23T06:35:20;-0.90;93.30
11140;DHT22;5624;49.388;11.350;2023-01-23T06:37:45;-0.80;92.90
11140;DHT22;5624;49.388;11.350;2023-01-23T06:40:11;-0.80;92.80
11140;DHT22;5624;49.388;11.350;2023-01-23T06:42:38;-0.80;93.10
11140;DHT22;5624;49.388;11.350;2023-01-23T06:45:05;-0.90;93.50
11140;DHT22;5624;49.388;11.350;2023-01-23T06:47:31;-0.80;93.10
11140;DHT22;5624;49.388;11.350;2023-01-23T06:49:57;-0.80;93.10
11140;DHT22;5624;49.388;11.350;2023-01-23T06:52:22;-0.80;93.20
11140;DHT22;5624;49.388;11.350;2023-01-23T06:54:48;-0.80;93.10
11140;DHT22;5624;49.388;11.350;2023-01-23T06:57:13;-0.70;92.80
11140;DHT22;5624;49.388;11.350;2023-01-23T06:59:39;-0.80;93.00
11140;DHT22;5624;49.388;11.350;2023-01-23T07:02:05;-0.80;93.40
11140;DHT22;5624;49.388;11.350;2023-01-23T07:04:32;-0.80;93.30
11140;DHT22;5624;49.388;11.350;2023-01-23T07:06:57;-0.70;92.90
11140;DHT22;5624;49.388;11.350;2023-01-23T07:09:23;-0.80;92.90
11140;DHT22;5624;49.388;11.350;2023-01-23T07:11:49;-0.80;93.20
11140;DHT22;5624;49.388;11.350;2023-01-23T07:14:14;-0.80;93.50
11140;DHT22;5624;49.388;11.350;2023-01-23T07:16:40;-0.80;93.50
11140;DHT22;5624;49.388;11.350;2023-01-23T07:19:05;-0.80;93.30
11140;DHT22;5624;49.388;11.350;2023-01-23T07:21:31;-0.80;93.30
11140;DHT22;5624;49.388;11.350;2023-01-23T07:23:57;-0.80;93.40
11140;DHT22;5624;49.388;11.350;2023-01-23T07:26:23;-0.80;93.50
11140;DHT22;5624;49.388;11.350;2023-01-23T07:28:49;-0.70;93.60
11140;DHT22;5624;49.388;11.350;2023-01-23T07:31:14;-0.70;93.70
11140;DHT22;5624;49.388;11.350;2023-01-23T07:33:40;-0.70;93.70
11140;DHT22;5624;49.388;11.350;2023-01-23T07:36:06;-0.70;93.50
11140;DHT22;5624;49.388;11.350;2023-01-23T07:38:32;-0.70;93.60
11140;DHT22;5624;49.388;11.350;2023-01-23T07:40:58;-0.70;93.70
11140;DHT22;5624;49.388;11.350;2023-01-23T07:43:25;-0.70;93.40
11140;DHT22;5624;49.388;11.350;2023-01-23T07:45:50;-0.60;93.20
11140;DHT22;5624;49.388;11.350;2023-01-23T07:48:16;-0.60;93.20
11140;DHT22;5624;49.388;11.350;2023-01-23T07:50:42;-0.60;93.60
11140;DHT22;5624;49.388;11.350;2023-01-23T07:53:08;-0.60;93.90
11140;DHT22;5624;49.388;11.350;2023-01-23T07:55:37;-0.60;93.30
11140;DHT22;5624;49.388;11.350;2023-01-23T07:58:02;-0.60;93.10
11140;DHT22;5624;49.388;11.350;2023-01-23T08:00:28;-0.50;93.50
11140;DHT22;5624;49.388;11.350;2023-01-23T08:02:54;-0.50;93.10
11140;DHT22;5624;49.388;11.350;2023-01-23T08:05:20;-0.50;92.80
11140;DHT22;5624;49.388;11.350;2023-01-23T08:07:45;-0.50;92.70
11140;DHT22;5624;49.388;11.350;2023-01-23T08:10:11;-0.50;93.30
11140;DHT22;5624;49.388;11.350;2023-01-23T08:12:37;-0.50;93.10
11140;DHT22;5624;49.388;11.350;2023-01-23T08:15:03;-0.40;93.10
11140;DHT22;5624;49.388;11.350;2023-01-23T08:17:29;-0.50;93.20
11140;DHT22;5624;49.388;11.350;2023-01-23T08:19:54;-0.50;93.50
11140;DHT22;5624;49.388;11.350;2023-01-23T08:22:20;-0.50;93.50
11140;DHT22;5624;49.388;11.350;2023-01-23T08:24:46;-0.40;93.60
11140;DHT22;5624;49.388;11.350;2023-01-23T08:27:12;-0.40;93.00
11140;DHT22;5624;49.388;11.350;2023-01-23T08:29:38;-0.30;92.70
11140;DHT22;5624;49.388;11.350;2023-01-23T08:32:04;-0.30;92.70
11140;DHT22;5624;49.388;11.350;2023-01-23T08:34:29;-0.30;93.10
11140;DHT22;5624;49.388;11.350;2023-01-23T08:36:56;-0.20;92.40
11140;DHT22;5624;49.388;11.350;2023-01-23T08:39:21;-0.20;92.20
11140;DHT22;5624;49.388;11.350;2023-01-23T08:41:49;-0.30;92.40
11140;DHT22;5624;49.388;11.350;2023-01-23T08:44:15;-0.30;92.60
11140;DHT22;5624;49.388;11.350;2023-01-23T08:46:40;-0.20;92.10
11140;DHT22;5624;49.388;11.350;2023-01-23T08:49:07;-0.10;92.10
11140;DHT22;5624;49.388;11.350;2023-01-23T08:51:34;-0.20;92.30
11140;DHT22;5624;49.388;11.350;2023-01-23T08:53:59;-0.10;91.90
11140;DHT22;5624;49.388;11.350;2023-01-23T08:56:25;0.00;91.80
11140;DHT22;5624;49.388;11.350;2023-01-23T08:58:51;0.00;91.70
11140;DHT22;5624;49.388;11.350;2023-01-23T09:01:19;0.00;91.30
11140;DHT22;5624;49.388;11.350;2023-01-23T09:03:45;0.00;91.00
11140;DHT22;5624;49.388;11.350;2023-01-23T09:06:12;0.10;91.60
11140;DHT22;5624;49.388;11.350;2023-01-23T09:08:38;0.10;90.50
11140;DHT22;5624;49.388;11.350;2023-01-23T09:11:05;0.10;90.80
11140;DHT22;5624;49.388;11.350;2023-01-23T09:13:31;0.20;90.90
11140;DHT22;5624;49.388;11.350;2023-01-23T09:15:57;0.10;90.60
11140;DHT22;5624;49.388;11.350;2023-01-23T09:18:23;0.20;91.10
11140;DHT22;5624;49.388;11.350;2023-01-23T09:20:50;0.30;90.20
11140;DHT22;5624;49.388;11.350;2023-01-23T09:23:15;0.20;90.20
11140;DHT22;5624;49.388;11.350;2023-01-23T09:25:41;0.30;91.00
11140;DHT22;5624;49.388;11.350;2023-01-23T09:28:07;0.30;90.10
11140;DHT22;5624;49.388;11.350;2023-01-23T09:30:32;0.40;90.20
11140;DHT22;5624;49.388;11.350;2023-01-23T09:32:58;0.30;89.80
11140;DHT22;5624;49.388;11.350;2023-01-23T09:35:23;0.40;90.10
11140;DHT22;5624;49.388;11.350;2023-01-23T09:37:49;0.40;89.70
11140;DHT22;5624;49.388;11.350;2023-01-23T09:40:27;0.40;89.70
11140;DHT22;5624;49.388;11.350;2023-01-23T09:42:55;0.40;90.40
11140;DHT22;5624;49.388;11.350;2023-01-23T09:45:24;0.30;90.00
11140;DHT22;5624;49.388;11.350;2023-01-23T09:49:03;0.30;90.40
11140;DHT22;5624;49.388;11.350;2023-01-23T09:51:24;0.30;90.80
11140;DHT22;5624;49.388;11.350;2023-01-23T09:53:51;0.40;89.70
11140;DHT22;5624;49.388;11.350;2023-01-23T09:56:37;0.50;89.80
11140;DHT22;5624;49.388;11.350;2023-01-23T09:59:36;0.50;89.20
11140;DHT22;5624;49.388;11.350;2023-01-23T10:02:13;0.50;89.80
11140;DHT22;5624;49.388;11.350;2023-01-23T10:04:39;0.60;90.00
11140;DHT22;5624;49.388;11.350;2023-01-23T10:07:26;0.90;88.40
11140;DHT22;5624;49.388;11.350;2023-01-23T10:13:10;1.50;86.20
11140;DHT22;5624;49.388;11.350;2023-01-23T10:18:49;2.10;82.90
11140;DHT22;5624;49.388;11.350;2023-01-23T10:21:28;2.40;81.00
11140;DHT22;5624;49.388;11.350;2023-01-23T10:26:42;2.60;80.30
11140;DHT22;5624;49.388;11.350;2023-01-23T10:31:51;2.40;80.80
11140;DHT22;5624;49.388;11.350;2023-01-23T10:34:26;2.50;81.20
11140;DHT22;5624;49.388;11.350;2023-01-23T10:39:30;2.60;80.20
11140;DHT22;5624;49.388;11.350;2023-01-23T10:41:59;2.50;80.10
11140;DHT22;5624;49.388;11.350;2023-01-23T10:44:24;2.40;81.30
11140;DHT22;5624;49.388;11.350;2023-01-23T10:46:53;2.40;81.30
11140;DHT22;5624;49.388;11.350;2023-01-23T10:49:30;2.20;81.60
11140;DHT22;5624;49.388;11.350;2023-01-23T10:51:56;2.30;82.00
11140;DHT22;5624;49.388;11.350;2023-01-23T10:54:27;2.20;82.00
11140;DHT22;5624;49.388;11.350;2023-01-23T10:59:34;2.20;82.40
11140;DHT22;5624;49.388;11.350;2023-01-23T11:04:41;2.10;82.20
11140;DHT22;5624;49.388;11.350;2023-01-23T11:07:17;2.10;82.80
11140;DHT22;5624;49.388;11.350;2023-01-23T11:12:47;2.20;82.60
11140;DHT22;5624;49.388;11.350;2023-01-23T11:17:48;2.20;82.70
11140;DHT22;5624;49.388;11.350;2023-01-23T11:20:36;2.10;82.50
11140;DHT22;5624;49.388;11.350;2023-01-23T11:26:00;2.20;83.30
11140;DHT22;5624;49.388;11.350;2023-01-23T11:28:45;2.40;81.60
11140;DHT22;5624;49.388;11.350;2023-01-23T11:31:17;2.50;81.40
11140;DHT22;5624;49.388;11.350;2023-01-23T11:34:04;2.60;80.40
11140;DHT22;5624;49.388;11.350;2023-01-23T11:36:52;2.60;80.10
11140;DHT22;5624;49.388;11.350;2023-01-23T11:42:12;2.50;81.20
11140;DHT22;5624;49.388;11.350;2023-01-23T11:44:39;2.50;81.10
11140;DHT22;5624;49.388;11.350;2023-01-23T11:50:15;2.90;79.40
11140;DHT22;5624;49.388;11.350;2023-01-23T12:00:47;3.20;78.60
11140;DHT22;5624;49.388;11.350;2023-01-23T12:03:25;3.20;77.90
11140;DHT22;5624;49.388;11.350;2023-01-23T12:06:08;3.20;77.90
11140;DHT22;5624;49.388;11.350;2023-01-23T12:09:09;3.20;78.00
11140;DHT22;5624;49.388;11.350;2023-01-23T12:14:53;3.50;76.70
11140;DHT22;5624;49.388;11.350;2023-01-23T12:41:54;2.90;78.40
11140;DHT22;5624;49.388;11.350;2023-01-23T12:44:36;3.00;79.00
11140;DHT22;5624;49.388;11.350;2023-01-23T12:47:09;3.00;78.80
11140;DHT22;5624;49.388;11.350;2023-01-23T12:49:49;3.00;79.10
11140;DHT22;5624;49.388;11.350;2023-01-23T12:55:16;2.70;79.80
11140;DHT22;5624;49.388;11.350;2023-01-23T12:57:42;2.60;80.00
11140;DHT22;5624;49.388;11.350;2023-01-23T13:00:43;2.70;79.30
11140;DHT22;5624;49.388;11.350;2023-01-23T13:08:29;3.10;78.60
11140;DHT22;5624;49.388;11.350;2023-01-23T13:11:08;3.00;78.50
11140;DHT22;5624;49.388;11.350;2023-01-23T13:13:54;2.90;79.00
11140;DHT22;5624;49.388;11.350;2023-01-23T13:16:27;2.90;80.00
11140;DHT22;5624;49.388;11.350;2023-01-23T13:18:58;2.90;79.20
11140;DHT22;5624;49.388;11.350;2023-01-23T13:25:32;2.90;80.10
11140;DHT22;5624;49.388;11.350;2023-01-23T13:27:41;3.10;79.70
11140;DHT22;5624;49.388;11.350;2023-01-23T13:32:48;3.30;78.60
11140;DHT22;5624;49.388;11.350;2023-01-23T13:52:00;3.00;79.90
11140;DHT22;5624;49.388;11.350;2023-01-23T13:54:30;2.90;79.70
11140;DHT22;5624;49.388;11.350;2023-01-23T13:57:16;2.90;80.30
11140;DHT22;5624;49.388;11.350;2023-01-23T13:59:46;2.90;80.80
11140;DHT22;5624;49.388;11.350;2023-01-23T14:02:32;2.80;80.70
11140;DHT22;5624;49.388;11.350;2023-01-23T14:05:25;2.80;80.70
11140;DHT22;5624;49.388;11.350;2023-01-23T14:08:02;2.90;81.10
11140;DHT22;5624;49.388;11.350;2023-01-23T14:10:35;2.90;80.90
11140;DHT22;5624;49.388;11.350;2023-01-23T14:13:08;2.90;80.80
11140;DHT22;5624;49.388;11.350;2023-01-23T14:15:34;2.90;80.60
11140;DHT22;5624;49.388;11.350;2023-01-23T14:18:30;2.80;81.00
11140;DHT22;5624;49.388;11.350;2023-01-23T14:21:19;2.80;81.10
11140;DHT22;5624;49.388;11.350;2023-01-23T14:23:52;2.80;81.30
11140;DHT22;5624;49.388;11.350;2023-01-23T14:26:25;2.80;81.20
11140;DHT22;5624;49.388;11.350;2023-01-23T14:28:52;2.90;81.20
11140;DHT22;5624;49.388;11.350;2023-01-23T14:31:27;2.80;81.20
11140;DHT22;5624;49.388;11.350;2023-01-23T14:34:20;2.90;81.00
11140;DHT22;5624;49.388;11.350;2023-01-23T14:39:29;2.90;81.20
11140;DHT22;5624;49.388;11.350;2023-01-23T14:41:57;2.80;81.50
11140;DHT22;5624;49.388;11.350;2023-01-23T14:46:55;2.80;81.80
11140;DHT22;5624;49.388;11.350;2023-01-23T14:49:28;2.90;81.60
11140;DHT22;5624;49.388;11.350;2023-01-23T14:52:04;2.90;81.50
11140;DHT22;5624;49.388;11.350;2023-01-23T14:54:31;2.80;81.80
11140;DHT22;5624;49.388;11.350;2023-01-23T14:56:59;2.80;82.30
11140;DHT22;5624;49.388;11.350;2023-01-23T14:59:26;2.80;82.30
11140;DHT22;5624;49.388;11.350;2023-01-23T15:01:55;2.80;82.10
11140;DHT22;5624;49.388;11.350;2023-01-23T15:04:22;2.80;82.30
11140;DHT22;5624;49.388;11.350;2023-01-23T15:06:53;2.80;82.20
11140;DHT22;5624;49.388;11.350;2023-01-23T15:09:26;2.70;82.30
11140;DHT22;5624;49.388;11.350;2023-01-23T15:11:53;2.70;82.70
11140;DHT22;5624;49.388;11.350;2023-01-23T15:14:24;2.70;82.90
11140;DHT22;5624;49.388;11.350;2023-01-23T15:16:58;2.60;82.70
11140;DHT22;5624;49.388;11.350;2023-01-23T15:19:24;2.60;83.20
11140;DHT22;5624;49.388;11.350;2023-01-23T15:22:17;2.60;83.30
11140;DHT22;5624;49.388;11.350;2023-01-23T15:24:44;2.50;83.70
11140;DHT22;5624;49.388;11.350;2023-01-23T15:27:32;2.50;83.90
11140;DHT22;5624;49.388;11.350;2023-01-23T15:32:58;2.20;85.30
11140;DHT22;5624;49.388;11.350;2023-01-23T15:35:34;2.20;85.60
11140;DHT22;5624;49.388;11.350;2023-01-23T15:38:00;2.10;86.00
11140;DHT22;5624;49.388;11.350;2023-01-23T15:40:31;2.10;86.20
11140;DHT22;5624;49.388;11.350;2023-01-23T15:43:10;2.10;86.80
11140;DHT22;5624;49.388;11.350;2023-01-23T15:45:36;2.10;87.30
11140;DHT22;5624;49.388;11.350;2023-01-23T15:48:01;2.00;87.40
11140;DHT22;5624;49.388;11.350;2023-01-23T15:50:27;1.90;87.60
11140;DHT22;5624;49.388;11.350;2023-01-23T15:52:54;1.90;87.80
11140;DHT22;5624;49.388;11.350;2023-01-23T15:55:22;1.80;88.30
11140;DHT22;5624;49.388;11.350;2023-01-23T15:57:49;1.70;88.10
11140;DHT22;5624;49.388;11.350;2023-01-23T16:00:27;1.60;88.80
11140;DHT22;5624;49.388;11.350;2023-01-23T16:02:55;1.50;90.20
11140;DHT22;5624;49.388;11.350;2023-01-23T16:05:26;1.40;90.40
11140;DHT22;5624;49.388;11.350;2023-01-23T16:07:53;1.40;91.00
11140;DHT22;5624;49.388;11.350;2023-01-23T16:10:28;1.50;90.10
11140;DHT22;5624;49.388;11.350;2023-01-23T16:12:56;1.50;89.30
11140;DHT22;5624;49.388;11.350;2023-01-23T16:15:25;1.40;89.50
11140;DHT22;5624;49.388;11.350;2023-01-23T16:17:51;1.40;89.30
11140;DHT22;5624;49.388;11.350;2023-01-23T16:20:35;1.20;90.40
11140;DHT22;5624;49.388;11.350;2023-01-23T16:23:05;1.20;90.40
11140;DHT22;5624;49.388;11.350;2023-01-23T16:25:36;1.20;89.90
11140;DHT22;5624;49.388;11.350;2023-01-23T16:28:14;1.20;89.90
11140;DHT22;5624;49.388;11.350;2023-01-23T16:30:40;1.10;89.90
11140;DHT22;5624;49.388;11.350;2023-01-23T16:33:05;1.10;90.10
11140;DHT22;5624;49.388;11.350;2023-01-23T16:35:31;1.00;90.30
11140;DHT22;5624;49.388;11.350;2023-01-23T16:37:57;1.00;90.10
11140;DHT22;5624;49.388;11.350;2023-01-23T16:40:26;1.00;90.00
11140;DHT22;5624;49.388;11.350;2023-01-23T16:42:54;0.90;90.00
11140;DHT22;5624;49.388;11.350;2023-01-23T16:45:21;0.90;90.40
11140;DHT22;5624;49.388;11.350;2023-01-23T16:47:47;0.80;90.50
11140;DHT22;5624;49.388;11.350;2023-01-23T16:50:15;0.90;90.40
11140;DHT22;5624;49.388;11.350;2023-01-23T16:52:47;0.90;90.20
11140;DHT22;5624;49.388;11.350;2023-01-23T16:55:23;1.00;90.00
11140;DHT22;5624;49.388;11.350;2023-01-23T16:57:52;1.00;89.60
11140;DHT22;5624;49.388;11.350;2023-01-23T17:00:19;1.00;89.70
11140;DHT22;5624;49.388;11.350;2023-01-23T17:02:56;1.00;89.60
11140;DHT22;5624;49.388;11.350;2023-01-23T17:05:22;1.10;89.40
11140;DHT22;5624;49.388;11.350;2023-01-23T17:07:48;1.10;89.50
11140;DHT22;5624;49.388;11.350;2023-01-23T17:10:15;1.20;89.10
11140;DHT22;5624;49.388;11.350;2023-01-23T17:12:42;1.20;89.10
11140;DHT22;5624;49.388;11.350;2023-01-23T17:15:22;1.20;89.00
11140;DHT22;5624;49.388;11.350;2023-01-23T17:17:50;1.20;89.00
11140;DHT22;5624;49.388;11.350;2023-01-23T17:20:17;1.10;89.60
11140;DHT22;5624;49.388;11.350;2023-01-23T17:22:44;1.10;89.60
11140;DHT22;5624;49.388;11.350;2023-01-23T17:25:20;1.10;89.90
11140;DHT22;5624;49.388;11.350;2023-01-23T17:27:46;1.10;90.30
11140;DHT22;5624;49.388;11.350;2023-01-23T17:30:17;1.00;90.50
11140;DHT22;5624;49.388;11.350;2023-01-23T17:32:46;1.00;90.60
11140;DHT22;5624;49.388;11.350;2023-01-23T17:35:21;1.00;90.90
11140;DHT22;5624;49.388;11.350;2023-01-23T17:37:52;1.00;90.70
11140;DHT22;5624;49.388;11.350;2023-01-23T17:40:18;1.10;91.00
11140;DHT22;5624;49.388;11.350;2023-01-23T17:42:44;1.00;91.00
11140;DHT22;5624;49.388;11.350;2023-01-23T17:45:14;1.10;91.00
11140;DHT22;5624;49.388;11.350;2023-01-23T17:47:45;1.00;90.80
11140;DHT22;5624;49.388;11.350;2023-01-23T17:50:20;1.00;91.20